Time;durP1;ratioP1;P1;durP2;ratioP2;P2;SDS_P1;SDS_P2;PMS_P1;PMS_P2;Temp;Humidity;BMP_temperature;BMP_pressure;BME280_temperature;BME280_humidity;BME280_pressure;Samples;Min_cycle;Max_cycle;Signal;HPM_P1;HPM_P2
2021/07/13 00:00:40;;;;;;;4.60;2.72;;;20.00;99.90;;;;;;5037081;28;20099;-66
2021/07/13 00:03:09;;;;;;;5.20;2.97;;;20.00;99.90;;;;;;5041330;28;20133;-66
2021/07/13 00:05:38;;;;;;;6.03;3.35;;;20.00;99.90;;;;;;5033544;28;20038;-66
2021/07/13 00:08:06;;;;;;;4.32;2.42;;;19.90;99.90;;;;;;5039432;28;20123;-66
2021/07/13 00:10:38;;;;;;;4.80;3.03;;;19.90;99.90;;;;;;5017220;28;20045;-66
2021/07/13 00:13:05;;;;;;;4.50;2.90;;;19.80;99.90;;;;;;5033350;28;20127;-67
2021/07/13 00:15:36;;;;;;;4.30;3.10;;;19.80;99.90;;;;;;5032052;28;20368;-67
2021/07/13 00:18:04;;;;;;;5.07;3.17;;;19.70;99.90;;;;;;5035247;28;20049;-67
2021/07/13 00:20:32;;;;;;;6.40;3.15;;;19.70;99.90;;;;;;5014991;28;20054;-67
2021/07/13 00:23:00;;;;;;;4.75;2.97;;;19.60;99.90;;;;;;5043133;28;20045;-67
2021/07/13 00:25:29;;;;;;;6.18;3.28;;;19.60;99.90;;;;;;5032662;28;20046;-66
2021/07/13 00:27:57;;;;;;;4.03;2.75;;;19.60;99.90;;;;;;5036771;28;20458;-66
2021/07/13 00:30:25;;;;;;;4.82;2.92;;;19.60;99.90;;;;;;5032527;28;20100;-66
2021/07/13 00:32:53;;;;;;;4.60;3.05;;;19.60;99.90;;;;;;5031226;28;20046;-67
2021/07/13 00:35:21;;;;;;;8.68;6.10;;;19.50;99.90;;;;;;5043788;28;20546;-67
2021/07/13 00:37:48;;;;;;;7.53;4.43;;;19.40;99.90;;;;;;5051379;28;20120;-66
2021/07/13 00:40:19;;;;;;;5.47;3.70;;;19.40;99.90;;;;;;5044435;28;20091;-66
2021/07/13 00:42:48;;;;;;;4.45;3.30;;;19.40;99.90;;;;;;5052248;28;20036;-66
2021/07/13 00:45:16;;;;;;;6.10;4.13;;;19.30;99.90;;;;;;5051077;28;20037;-66
2021/07/13 00:47:48;;;;;;;10.52;5.18;;;19.30;99.90;;;;;;5046276;28;20057;-66
2021/07/13 00:50:18;;;;;;;5.35;3.80;;;19.20;99.90;;;;;;5037951;28;20049;-66
2021/07/13 00:52:45;;;;;;;5.75;3.42;;;19.20;99.90;;;;;;5035725;28;20714;-66
2021/07/13 00:55:14;;;;;;;5.45;3.22;;;19.20;99.90;;;;;;5036212;28;20649;-66
2021/07/13 00:57:41;;;;;;;4.78;3.00;;;19.10;99.90;;;;;;5036341;28;20534;-66
2021/07/13 01:00:16;;;;;;;5.28;3.08;;;19.10;99.90;;;;;;5038679;28;20032;-66
2021/07/13 01:02:47;;;;;;;5.40;3.15;;;19.10;99.90;;;;;;5037094;28;20041;-66
2021/07/13 01:05:24;;;;;;;5.07;3.17;;;19.20;99.90;;;;;;5032296;28;20095;-66
2021/07/13 01:08:12;;;;;;;5.95;3.60;;;19.20;99.90;;;;;;5031870;28;20049;-66
2021/07/13 01:10:47;;;;;;;4.50;3.05;;;19.30;99.90;;;;;;5037888;28;20045;-66
2021/07/13 01:13:47;;;;;;;4.90;2.70;;;19.40;99.90;;;;;;5039607;28;20045;-68
2021/07/13 01:16:23;;;;;;;5.20;3.00;;;19.40;99.90;;;;;;5032610;28;20050;-67
2021/07/13 01:19:22;;;;;;;5.82;3.15;;;19.40;99.90;;;;;;5032412;28;20045;-67
2021/07/13 01:21:58;;;;;;;6.97;3.28;;;19.50;99.90;;;;;;5032209;28;20041;-67
2021/07/13 01:24:53;;;;;;;4.57;3.10;;;19.50;99.90;;;;;;5060009;28;20052;-67
2021/07/13 01:27:37;;;;;;;5.00;3.03;;;19.50;99.90;;;;;;5041221;28;20076;-67
2021/07/13 01:30:11;;;;;;;4.35;3.10;;;19.50;99.90;;;;;;5031041;28;20128;-67
2021/07/13 01:32:41;;;;;;;4.45;3.20;;;19.50;99.90;;;;;;5042816;28;20124;-67
2021/07/13 01:35:15;;;;;;;5.25;3.50;;;19.40;99.90;;;;;;5041764;28;20498;-67
2021/07/13 01:37:46;;;;;;;5.13;2.95;;;19.40;99.90;;;;;;5042423;28;20252;-67
2021/07/13 01:40:14;;;;;;;5.93;3.25;;;19.40;99.90;;;;;;5043397;28;20516;-67
2021/07/13 01:42:43;;;;;;;5.90;3.17;;;19.40;99.90;;;;;;5030883;28;20043;-67
2021/07/13 01:45:16;;;;;;;4.28;2.95;;;19.30;99.90;;;;;;5042921;28;20119;-67
2021/07/13 01:47:45;;;;;;;4.00;2.80;;;19.30;99.90;;;;;;5040794;28;20049;-67
2021/07/13 01:50:14;;;;;;;4.63;3.28;;;19.30;99.90;;;;;;5029086;28;20053;-67
2021/07/13 01:52:44;;;;;;;4.18;3.00;;;19.30;99.90;;;;;;5041681;28;20140;-67
2021/07/13 01:55:13;;;;;;;5.45;3.05;;;19.30;99.90;;;;;;5045037;28;20424;-67
2021/07/13 01:57:42;;;;;;;4.68;2.88;;;19.30;99.90;;;;;;5036003;28;20056;-67
2021/07/13 02:00:11;;;;;;;4.97;3.20;;;19.30;99.90;;;;;;5031930;28;21658;-67
2021/07/13 02:02:39;;;;;;;5.32;3.42;;;19.30;99.90;;;;;;5030061;28;20464;-67
2021/07/13 02:05:09;;;;;;;5.32;3.40;;;19.30;99.90;;;;;;5033185;28;20060;-67
2021/07/13 02:07:41;;;;;;;4.90;3.17;;;19.20;99.90;;;;;;5043388;28;20037;-67
2021/07/13 02:10:10;;;;;;;4.57;3.13;;;19.20;99.90;;;;;;5055722;28;20040;-67
2021/07/13 02:12:39;;;;;;;5.50;2.85;;;19.20;99.90;;;;;;5046916;28;20416;-67
2021/07/13 02:15:10;;;;;;;6.60;3.58;;;19.20;99.90;;;;;;5048636;28;20044;-67
2021/07/13 02:17:38;;;;;;;5.95;3.65;;;19.20;99.90;;;;;;5040710;28;20094;-67
2021/07/13 02:20:10;;;;;;;5.03;3.08;;;19.10;99.90;;;;;;5060072;28;20099;-67
2021/07/13 02:22:38;;;;;;;5.93;3.67;;;19.20;99.90;;;;;;5052970;28;20102;-67
2021/07/13 02:25:07;;;;;;;5.95;3.47;;;19.20;99.90;;;;;;5052638;28;20045;-67
2021/07/13 02:27:40;;;;;;;7.80;3.42;;;19.10;99.90;;;;;;5034186;28;20484;-67
2021/07/13 02:30:08;;;;;;;6.03;3.38;;;19.10;99.90;;;;;;5047917;28;20083;-67
2021/07/13 02:32:51;;;;;;;5.78;3.55;;;19.00;99.90;;;;;;5051694;28;20079;-67
2021/07/13 02:35:26;;;;;;;4.47;2.80;;;19.00;99.90;;;;;;5045384;28;20096;-67
2021/07/13 02:37:53;;;;;;;5.00;3.17;;;19.00;99.90;;;;;;5053577;28;20433;-67
2021/07/13 02:40:22;;;;;;;4.63;3.50;;;19.00;99.90;;;;;;5054794;28;20041;-67
2021/07/13 02:42:49;;;;;;;4.40;3.33;;;19.00;99.90;;;;;;5053146;28;20052;-67
2021/07/13 02:45:17;;;;;;;4.32;3.30;;;18.90;99.90;;;;;;5051088;28;20132;-67
2021/07/13 02:47:46;;;;;;;5.45;3.45;;;18.90;99.90;;;;;;5053389;28;20037;-67
2021/07/13 02:50:16;;;;;;;4.70;3.15;;;18.90;99.90;;;;;;5031844;28;20057;-67
2021/07/13 02:52:45;;;;;;;4.30;3.30;;;18.90;99.90;;;;;;5045441;28;20099;-67
2021/07/13 02:55:19;;;;;;;4.97;3.40;;;18.80;99.90;;;;;;5049823;28;20037;-67
2021/07/13 02:57:47;;;;;;;6.53;3.35;;;18.90;99.90;;;;;;5054033;28;20041;-67
2021/07/13 03:00:17;;;;;;;4.38;3.20;;;18.90;99.90;;;;;;5051406;28;20037;-67
2021/07/13 03:02:48;;;;;;;9.95;6.55;;;18.90;99.90;;;;;;5054371;28;20064;-67
2021/07/13 03:05:18;;;;;;;6.78;5.05;;;18.90;99.90;;;;;;5050626;28;20041;-68
2021/07/13 03:07:50;;;;;;;5.43;4.05;;;18.90;99.90;;;;;;5043243;28;20057;-67
2021/07/13 03:10:25;;;;;;;5.03;3.70;;;19.00;99.90;;;;;;5054053;28;20048;-67
2021/07/13 03:12:54;;;;;;;5.30;3.58;;;19.00;99.90;;;;;;5046588;28;20052;-67
2021/07/13 03:15:28;;;;;;;4.45;3.47;;;19.00;99.90;;;;;;5054118;28;20128;-67
2021/07/13 03:17:56;;;;;;;5.18;3.78;;;19.00;99.90;;;;;;5034191;28;20034;-67
2021/07/13 03:20:25;;;;;;;5.18;3.78;;;19.00;99.90;;;;;;5052765;28;20044;-67
2021/07/13 03:22:56;;;;;;;5.32;3.80;;;19.00;99.90;;;;;;5053986;28;20029;-68
2021/07/13 03:25:31;;;;;;;6.88;3.88;;;19.10;99.90;;;;;;5050086;28;20045;-67
2021/07/13 03:28:00;;;;;;;6.22;3.55;;;19.10;99.90;;;;;;5054243;28;20538;-67
2021/07/13 03:30:28;;;;;;;5.10;3.78;;;19.10;99.90;;;;;;5052826;28;20040;-67
2021/07/13 03:32:58;;;;;;;5.97;4.10;;;19.10;99.90;;;;;;5054293;28;20040;-67
2021/07/13 03:35:26;;;;;;;7.22;4.07;;;19.20;99.90;;;;;;5036380;28;20690;-67
2021/07/13 03:37:55;;;;;;;5.50;3.85;;;19.10;99.90;;;;;;5054309;28;20029;-67
2021/07/13 03:40:23;;;;;;;4.90;3.72;;;19.00;99.90;;;;;;5032916;28;20057;-67
2021/07/13 03:42:52;;;;;;;5.18;3.78;;;19.00;99.90;;;;;;5052192;28;20037;-66
2021/07/13 03:45:19;;;;;;;5.07;3.78;;;19.00;99.90;;;;;;5052928;28;20068;-67
2021/07/13 03:47:49;;;;;;;8.88;4.00;;;19.00;99.90;;;;;;5051728;28;20029;-67
2021/07/13 03:50:18;;;;;;;5.53;4.10;;;19.00;99.90;;;;;;5053066;28;20033;-67
2021/07/13 03:52:45;;;;;;;8.35;4.22;;;18.90;99.90;;;;;;5041482;28;20053;-67
2021/07/13 03:55:13;;;;;;;5.78;4.05;;;18.90;99.90;;;;;;5038260;28;20491;-67
2021/07/13 03:57:41;;;;;;;6.30;3.90;;;18.80;99.90;;;;;;5043220;28;20123;-67
2021/07/13 04:00:14;;;;;;;6.28;4.05;;;18.80;99.90;;;;;;5054543;28;20060;-67
2021/07/13 04:02:44;;;;;;;5.30;3.83;;;18.80;99.90;;;;;;5049543;28;20040;-66
2021/07/13 04:05:13;;;;;;;5.70;4.03;;;18.80;99.90;;;;;;5053951;28;20039;-66
2021/07/13 04:07:41;;;;;;;7.65;3.97;;;18.70;99.90;;;;;;5051721;28;20514;-66
2021/07/13 04:10:13;;;;;;;4.95;3.60;;;18.70;99.90;;;;;;5032160;28;20834;-67
2021/07/13 04:12:44;;;;;;;5.72;3.72;;;18.70;99.90;;;;;;5053118;28;20057;-67
2021/07/13 04:15:13;;;;;;;5.20;3.72;;;18.70;99.90;;;;;;5047915;28;20723;-67
2021/07/13 04:17:41;;;;;;;5.45;4.00;;;18.70;99.90;;;;;;5052807;28;20045;-67
2021/07/13 04:20:10;;;;;;;6.65;4.00;;;18.70;99.90;;;;;;5047483;28;20072;-68
2021/07/13 04:22:40;;;;;;;6.68;3.55;;;18.70;99.90;;;;;;5037170;28;20044;-67
2021/07/13 04:25:08;;;;;;;6.97;4.07;;;18.80;99.90;;;;;;5049856;28;20052;-68
2021/07/13 04:27:35;;;;;;;5.70;4.05;;;18.80;99.90;;;;;;5052511;28;20060;-67
2021/07/13 04:30:05;;;;;;;4.68;3.33;;;18.90;99.90;;;;;;5051740;28;20492;-67
2021/07/13 04:32:33;;;;;;;6.55;3.72;;;19.00;99.90;;;;;;5035268;28;20090;-67
2021/07/13 04:35:01;;;;;;;4.68;3.30;;;19.10;99.90;;;;;;5051288;28;20079;-67
2021/07/13 04:37:29;;;;;;;4.70;3.03;;;19.10;99.90;;;;;;5051482;28;20044;-67
2021/07/13 04:39:56;;;;;;;7.40;3.90;;;19.20;99.90;;;;;;5051113;28;20115;-67
2021/07/13 04:42:23;;;;;;;5.15;3.35;;;19.30;99.90;;;;;;5051453;28;20102;-67
2021/07/13 04:44:50;;;;;;;6.45;3.80;;;19.30;99.90;;;;;;5037904;28;20144;-66
2021/07/13 04:47:18;;;;;;;4.93;3.40;;;19.40;99.90;;;;;;5034891;28;20088;-67
2021/07/13 04:49:45;;;;;;;5.45;3.35;;;19.50;99.90;;;;;;5051297;28;20056;-68
2021/07/13 04:52:13;;;;;;;5.13;3.67;;;19.60;99.90;;;;;;5032015;28;20057;-67
2021/07/13 04:54:40;;;;;;;4.63;3.20;;;19.60;99.90;;;;;;5015349;28;20045;-67
2021/07/13 04:57:07;;;;;;;4.80;3.17;;;19.60;99.90;;;;;;5032392;28;20103;-67
2021/07/13 04:59:35;;;;;;;4.30;3.08;;;19.60;99.90;;;;;;5032180;28;20049;-67
2021/07/13 05:02:03;;;;;;;4.45;3.03;;;19.70;99.90;;;;;;5035736;28;20483;-67
2021/07/13 05:04:31;;;;;;;7.53;3.97;;;19.70;99.90;;;;;;5037832;28;20041;-67
2021/07/13 05:06:58;;;;;;;5.95;3.65;;;19.80;99.90;;;;;;5047153;28;20067;-67
2021/07/13 05:09:26;;;;;;;8.80;3.80;;;19.80;99.90;;;;;;5050824;28;20045;-68
2021/07/13 05:11:53;;;;;;;4.63;3.17;;;19.90;99.90;;;;;;5050845;28;20061;-68
2021/07/13 05:14:22;;;;;;;5.40;3.28;;;20.00;99.90;;;;;;5042954;28;20050;-67
2021/07/13 05:16:49;;;;;;;7.45;5.05;;;20.10;99.90;;;;;;5021389;28;20080;-68
2021/07/13 05:19:17;;;;;;;6.72;4.53;;;20.30;99.90;;;;;;5030911;28;20385;-68
2021/07/13 05:21:54;;;;;;;5.68;4.13;;;20.30;99.90;;;;;;5052282;28;20395;-68
2021/07/13 05:24:25;;;;;;;8.07;3.92;;;20.30;99.90;;;;;;5031925;28;20076;-68
2021/07/13 05:26:53;;;;;;;4.90;3.42;;;20.30;99.90;;;;;;5044954;28;20049;-68
2021/07/13 05:29:21;;;;;;;4.35;3.10;;;20.10;99.90;;;;;;5050549;28;20515;-68
2021/07/13 05:31:48;;;;;;;4.85;3.10;;;20.20;99.90;;;;;;5046252;28;20049;-68
2021/07/13 05:34:16;;;;;;;6.18;3.85;;;20.40;99.90;;;;;;5042614;28;20076;-68
2021/07/13 05:36:44;;;;;;;7.07;3.75;;;20.70;99.90;;;;;;5046584;28;20039;-68
2021/07/13 05:39:11;;;;;;;5.50;3.63;;;20.80;99.90;;;;;;5044681;28;20033;-68
2021/07/13 05:41:39;;;;;;;6.10;3.65;;;20.70;99.90;;;;;;5037525;28;20463;-68
2021/07/13 05:44:07;;;;;;;7.10;4.20;;;20.70;99.90;;;;;;5033800;28;20041;-68
2021/07/13 05:46:34;;;;;;;6.72;4.45;;;20.70;99.90;;;;;;5019417;28;20164;-68
2021/07/13 05:49:03;;;;;;;6.80;4.05;;;20.80;99.90;;;;;;5034685;28;20041;-68
2021/07/13 05:51:30;;;;;;;8.13;3.90;;;20.90;99.90;;;;;;5033576;28;20049;-68
2021/07/13 05:53:59;;;;;;;10.93;3.95;;;21.00;99.90;;;;;;5042064;28;20046;-68
2021/07/13 05:56:26;;;;;;;4.18;3.25;;;21.10;99.90;;;;;;5041683;28;20068;-67
2021/07/13 05:58:53;;;;;;;5.55;3.88;;;21.10;99.90;;;;;;5040981;28;20045;-67
2021/07/13 06:01:21;;;;;;;5.95;4.00;;;21.20;99.90;;;;;;5036801;28;20060;-68
2021/07/13 06:03:50;;;;;;;7.63;4.75;;;21.40;99.90;;;;;;5032062;28;20034;-67
2021/07/13 06:06:17;;;;;;;10.70;3.63;;;21.20;99.90;;;;;;5034058;28;20042;-67
2021/07/13 06:08:44;;;;;;;6.28;4.10;;;21.30;99.90;;;;;;5036046;28;20158;-67
2021/07/13 06:11:12;;;;;;;7.57;4.20;;;21.30;99.90;;;;;;5043863;28;20076;-67
2021/07/13 06:13:39;;;;;;;5.00;3.75;;;21.30;99.90;;;;;;5041297;28;20041;-66
2021/07/13 06:16:07;;;;;;;8.68;3.78;;;21.40;99.90;;;;;;5037669;28;20038;-67
2021/07/13 06:18:34;;;;;;;6.47;3.70;;;21.60;99.90;;;;;;5033607;28;20045;-67
2021/07/13 06:21:02;;;;;;;10.85;7.88;;;21.60;99.90;;;;;;5035512;28;20072;-67
2021/07/13 06:23:29;;;;;;;9.35;3.67;;;21.70;99.90;;;;;;5034133;28;20557;-67
2021/07/13 06:25:57;;;;;;;7.72;3.95;;;21.90;99.90;;;;;;5039892;28;20041;-66
2021/07/13 06:28:24;;;;;;;7.93;4.00;;;22.00;99.90;;;;;;5050320;28;20144;-67
2021/07/13 06:30:51;;;;;;;7.45;4.93;;;22.10;99.90;;;;;;5041719;28;20041;-67
2021/07/13 06:33:19;;;;;;;6.70;4.78;;;22.20;99.90;;;;;;5038348;28;20080;-66
2021/07/13 06:35:48;;;;;;;5.47;3.55;;;22.40;99.90;;;;;;5035810;28;20065;-66
2021/07/13 06:38:16;;;;;;;9.30;4.32;;;22.40;99.90;;;;;;5035918;28;20044;-67
2021/07/13 06:40:44;;;;;;;6.13;3.70;;;22.50;99.90;;;;;;5034715;28;20165;-67
2021/07/13 06:43:11;;;;;;;7.97;3.55;;;22.30;99.90;;;;;;5035883;28;20852;-66
2021/07/13 06:45:39;;;;;;;6.47;3.45;;;22.30;99.90;;;;;;5030346;28;20189;-66
2021/07/13 06:48:08;;;;;;;8.00;4.57;;;22.20;99.90;;;;;;5034526;28;20156;-66
2021/07/13 06:50:35;;;;;;;10.32;6.50;;;22.30;99.90;;;;;;5041820;28;20076;-67
2021/07/13 06:53:03;;;;;;;9.82;6.78;;;22.30;99.90;;;;;;5037898;28;20063;-67
2021/07/13 06:55:30;;;;;;;7.55;5.28;;;22.20;99.90;;;;;;5044461;28;20121;-67
2021/07/13 06:57:58;;;;;;;9.38;5.28;;;22.30;99.90;;;;;;5030520;28;20076;-66
2021/07/13 07:00:25;;;;;;;5.93;3.72;;;22.40;99.90;;;;;;5038191;28;20072;-67
2021/07/13 07:02:52;;;;;;;5.53;3.60;;;22.70;99.90;;;;;;5043368;28;20076;-67
2021/07/13 07:05:20;;;;;;;5.82;3.60;;;22.90;99.90;;;;;;5035185;28;20496;-65
2021/07/13 07:07:48;;;;;;;4.57;3.15;;;23.20;99.90;;;;;;5049593;28;20864;-66
2021/07/13 07:10:17;;;;;;;6.65;5.25;;;23.30;99.90;;;;;;5042311;28;20049;-67
2021/07/13 07:12:45;;;;;;;5.25;3.70;;;23.30;99.90;;;;;;5036054;28;20069;-67
2021/07/13 07:15:14;;;;;;;5.72;3.20;;;23.30;99.90;;;;;;5033928;28;20049;-67
2021/07/13 07:17:46;;;;;;;4.50;3.45;;;23.10;99.90;;;;;;5033193;28;20546;-67
2021/07/13 07:20:18;;;;;;;4.50;3.55;;;23.00;99.90;;;;;;5032233;28;20046;-66
2021/07/13 07:22:46;;;;;;;6.35;3.47;;;23.00;99.90;;;;;;5036462;28;20124;-67
2021/07/13 07:25:14;;;;;;;6.10;3.80;;;23.00;99.90;;;;;;5051137;28;20348;-67
2021/07/13 07:27:42;;;;;;;5.30;3.55;;;23.00;99.90;;;;;;5048046;28;20412;-66
2021/07/13 07:30:12;;;;;;;6.10;3.25;;;22.90;99.90;;;;;;5034784;28;20071;-66
2021/07/13 07:32:40;;;;;;;10.45;6.97;;;22.90;99.90;;;;;;5036761;28;20115;-66
2021/07/13 07:35:09;;;;;;;7.53;4.88;;;23.00;99.90;;;;;;5037424;28;20087;-66
2021/07/13 07:37:37;;;;;;;8.07;5.50;;;23.10;99.90;;;;;;5032891;28;20041;-66
2021/07/13 07:40:11;;;;;;;7.80;5.85;;;23.20;99.90;;;;;;5043722;28;20051;-66
2021/07/13 07:42:39;;;;;;;6.35;3.85;;;23.30;99.90;;;;;;5045312;28;20446;-65
2021/07/13 07:45:07;;;;;;;4.88;3.50;;;23.30;99.90;;;;;;5049174;28;20538;-65
2021/07/13 07:47:35;;;;;;;5.53;3.45;;;23.40;99.90;;;;;;5035352;28;20037;-66
2021/07/13 07:50:04;;;;;;;11.98;6.90;;;23.50;99.90;;;;;;5034985;28;20076;-65
2021/07/13 07:52:31;;;;;;;7.35;5.30;;;23.70;99.90;;;;;;5035602;28;20139;-66
2021/07/13 07:54:59;;;;;;;8.02;6.15;;;23.70;99.90;;;;;;5038052;28;20096;-66
2021/07/13 07:57:26;;;;;;;5.93;3.95;;;23.80;99.90;;;;;;5040684;28;20080;-66
2021/07/13 07:59:54;;;;;;;5.25;3.78;;;23.80;99.90;;;;;;5052835;28;20044;-66
2021/07/13 08:02:21;;;;;;;5.78;3.78;;;23.80;99.90;;;;;;5037345;28;20500;-66
2021/07/13 08:04:49;;;;;;;5.57;3.40;;;23.90;99.90;;;;;;5051607;28;20743;-65
2021/07/13 08:07:18;;;;;;;8.25;3.42;;;24.00;99.90;;;;;;5051508;28;20059;-66
2021/07/13 08:09:45;;;;;;;5.80;3.67;;;24.10;99.90;;;;;;5050089;28;20140;-66
2021/07/13 08:12:12;;;;;;;4.70;3.60;;;24.20;99.90;;;;;;5052250;28;20091;-66
2021/07/13 08:14:40;;;;;;;7.07;4.40;;;24.30;99.90;;;;;;5044336;28;20041;-65
2021/07/13 08:17:07;;;;;;;7.97;5.22;;;24.40;99.90;;;;;;5051534;28;20053;-66
2021/07/13 08:19:38;;;;;;;9.65;4.10;;;24.50;99.90;;;;;;5051603;28;20053;-66
2021/07/13 08:22:10;;;;;;;5.57;4.15;;;24.50;99.90;;;;;;5051313;28;20041;-65
2021/07/13 08:24:38;;;;;;;5.50;4.13;;;24.70;99.90;;;;;;5039337;28;20053;-65
2021/07/13 08:27:07;;;;;;;5.35;3.60;;;24.80;99.90;;;;;;5045942;28;20048;-65
2021/07/13 08:29:35;;;;;;;6.05;3.70;;;24.90;99.90;;;;;;5048933;28;20131;-65
2021/07/13 08:32:03;;;;;;;6.63;4.00;;;25.00;99.90;;;;;;5052590;28;20047;-65
2021/07/13 08:34:33;;;;;;;8.30;6.10;;;25.10;99.90;;;;;;5050124;28;20045;-65
2021/07/13 08:37:03;;;;;;;6.70;4.72;;;25.30;99.90;;;;;;5043261;28;20045;-65
2021/07/13 08:39:30;;;;;;;5.47;4.43;;;25.40;99.90;;;;;;5051516;28;20056;-65
2021/07/13 08:41:59;;;;;;;7.72;3.70;;;25.60;99.90;;;;;;5041200;28;20519;-65
2021/07/13 08:44:27;;;;;;;7.40;4.75;;;25.70;99.90;;;;;;5041272;28;20040;-64
2021/07/13 08:46:54;;;;;;;6.35;4.20;;;25.70;99.90;;;;;;5044109;28;20067;-65
2021/07/13 08:49:23;;;;;;;6.20;4.05;;;25.80;99.90;;;;;;5044916;28;20056;-65
2021/07/13 08:51:51;;;;;;;6.03;4.20;;;25.80;99.90;;;;;;5032989;28;20095;-65
2021/07/13 08:54:18;;;;;;;7.65;4.40;;;25.80;99.90;;;;;;5038443;28;20068;-65
2021/07/13 08:56:46;;;;;;;7.10;5.72;;;26.00;99.90;;;;;;5036600;28;20041;-65
2021/07/13 08:59:14;;;;;;;9.45;6.22;;;26.30;99.90;;;;;;5038924;28;20106;-65
2021/07/13 09:01:41;;;;;;;7.47;4.68;;;26.50;99.90;;;;;;5041065;28;20045;-65
2021/07/13 09:04:09;;;;;;;6.63;4.07;;;26.70;99.90;;;;;;5034764;28;20096;-65
2021/07/13 09:06:52;;;;;;;4.88;3.85;;;27.10;99.90;;;;;;5044857;28;20658;-66
2021/07/13 09:09:33;;;;;;;6.85;4.22;;;27.50;99.90;;;;;;5031312;28;20103;-65
2021/07/13 09:12:17;;;;;;;5.97;4.30;;;27.80;99.90;;;;;;5042347;28;20056;-65
2021/07/13 09:14:51;;;;;;;6.82;4.30;;;28.20;99.90;;;;;;5044919;28;20076;-65
2021/07/13 09:17:43;;;;;;;7.75;3.90;;;28.80;99.90;;;;;;5040550;28;20519;-65
2021/07/13 09:20:27;;;;;;;;;;;29.20;99.90;;;;;;5042072;28;20041;-65
2021/07/13 09:23:04;;;;;;;7.05;4.10;;;28.90;99.90;;;;;;5042713;28;19929;-65
2021/07/13 09:25:37;;;;;;;7.43;3.67;;;29.10;99.90;;;;;;5029318;28;20073;-65
2021/07/13 09:28:04;;;;;;;5.57;4.38;;;29.10;99.90;;;;;;5043483;28;20447;-66
2021/07/13 09:30:32;;;;;;;8.20;4.00;;;29.00;99.90;;;;;;5034836;28;20467;-66
2021/07/13 09:33:26;;;;;;;5.82;3.97;;;28.70;99.90;;;;;;5029368;28;20046;-65
2021/07/13 09:36:11;;;;;;;5.78;4.32;;;28.70;99.90;;;;;;5030092;28;20033;-65
2021/07/13 09:38:44;;;;;;;5.78;3.97;;;28.70;99.90;;;;;;5028008;28;20121;-65
2021/07/13 09:41:17;;;;;;;5.60;3.92;;;28.70;99.90;;;;;;5032985;28;20049;-65
2021/07/13 09:43:46;;;;;;;6.93;4.18;;;28.80;99.90;;;;;;5048542;28;20135;-66
2021/07/13 09:46:23;;;;;;;5.97;4.22;;;28.90;99.90;;;;;;5048462;28;20590;-66
2021/07/13 09:49:09;;;;;;;5.50;3.85;;;28.70;99.90;;;;;;5049838;28;20041;-66
2021/07/13 09:51:37;;;;;;;7.65;4.93;;;28.60;99.90;;;;;;5041331;28;20052;-66
2021/07/13 09:54:41;;;;;;;7.75;4.50;;;28.40;99.90;;;;;;5029017;28;20041;-66
2021/07/13 09:57:22;;;;;;;8.65;4.38;;;28.00;99.90;;;;;;5047660;28;20595;-66
2021/07/13 09:59:52;;;;;;;6.50;4.70;;;28.00;99.90;;;;;;5050784;28;20116;-66
2021/07/13 10:02:23;;;;;;;5.93;4.57;;;28.30;99.90;;;;;;5048043;28;20131;-66
2021/07/13 10:04:51;;;;;;;;;;;28.40;99.90;;;;;;5037881;28;20033;-66
2021/07/13 10:07:20;;;;;;;8.23;4.70;;;28.20;99.90;;;;;;5047889;28;19939;-66
2021/07/13 10:09:49;;;;;;;8.50;5.00;;;28.00;99.90;;;;;;5035086;28;20520;-67
2021/07/13 10:12:18;;;;;;;9.43;4.70;;;27.50;99.90;;;;;;5033596;28;20474;-67
2021/07/13 10:14:47;;;;;;;8.35;4.57;;;27.50;99.90;;;;;;5034004;28;20054;-67
2021/07/13 10:17:16;;;;;;;6.32;5.25;;;27.70;99.90;;;;;;5043387;28;20041;-66
2021/07/13 10:20:00;;;;;;;14.18;5.20;;;27.90;99.90;;;;;;5047987;28;20068;-67
2021/07/13 10:22:29;;;;;;;8.45;5.60;;;27.90;99.90;;;;;;5037953;28;20120;-67
2021/07/13 10:24:59;;;;;;;6.90;4.68;;;27.80;99.90;;;;;;5043777;28;20116;-67
2021/07/13 10:27:30;;;;;;;7.18;5.07;;;28.20;99.90;;;;;;5052861;28;20318;-67
2021/07/13 10:30:03;;;;;;;11.27;4.70;;;28.60;99.90;;;;;;5045566;28;20064;-68
2021/07/13 10:32:31;;;;;;;7.63;4.70;;;29.00;99.90;;;;;;5050244;28;20051;-67
2021/07/13 10:35:22;;;;;;;5.70;4.10;;;29.30;99.90;;;;;;5042436;28;20086;-67
2021/07/13 10:38:15;;;;;;;8.02;4.53;;;29.70;99.90;;;;;;5038900;28;20041;-68
2021/07/13 10:40:42;;;;;;;6.88;4.25;;;29.80;99.90;;;;;;5050381;28;20044;-68
2021/07/13 10:43:24;;;;;;;6.25;4.28;;;29.30;99.90;;;;;;5052573;28;20040;-67
2021/07/13 10:46:09;;;;;;;6.13;4.47;;;28.70;99.90;;;;;;5052381;28;20041;-67
2021/07/13 10:48:39;;;;;;;6.20;4.80;;;28.30;99.90;;;;;;5051180;28;20037;-67
2021/07/13 10:51:09;;;;;;;6.45;4.82;;;27.90;99.90;;;;;;5036325;28;20048;-67
2021/07/13 10:53:42;;;;;;;7.05;4.90;;;27.70;99.90;;;;;;5052290;28;20068;-67
2021/07/13 10:56:14;;;;;;;5.70;4.60;;;27.70;99.90;;;;;;5045240;28;20061;-67
2021/07/13 10:58:52;;;;;;;5.30;4.13;;;27.70;99.90;;;;;;5034872;28;20041;-67
2021/07/13 11:01:26;;;;;;;5.97;4.32;;;27.90;99.90;;;;;;5040939;28;20056;-67
2021/07/13 11:03:56;;;;;;;6.15;4.18;;;28.30;99.90;;;;;;5042419;28;20497;-67
2021/07/13 11:06:43;;;;;;;7.97;4.07;;;28.70;99.90;;;;;;5044700;28;20496;-68
2021/07/13 11:09:25;;;;;;;5.70;4.05;;;28.70;99.90;;;;;;5037520;28;20108;-67
2021/07/13 11:12:01;;;;;;;6.15;4.53;;;28.80;99.90;;;;;;5044938;28;20053;-68
2021/07/13 11:14:29;;;;;;;7.20;4.80;;;28.70;99.90;;;;;;5045556;28;20076;-67
2021/07/13 11:16:57;;;;;;;5.78;4.25;;;28.30;99.90;;;;;;5042669;28;20056;-68
2021/07/13 11:19:30;;;;;;;6.28;4.75;;;28.10;99.90;;;;;;5051809;28;20047;-67
2021/07/13 11:21:58;;;;;;;6.78;4.72;;;27.80;99.90;;;;;;5045132;28;20036;-67
2021/07/13 11:24:26;;;;;;;6.93;4.45;;;27.80;99.90;;;;;;5043150;28;20048;-67
2021/07/13 11:26:56;;;;;;;8.07;4.45;;;27.80;99.90;;;;;;5038551;28;20128;-66
2021/07/13 11:29:27;;;;;;;8.02;4.47;;;28.00;99.90;;;;;;5032601;28;20069;-66
2021/07/13 11:32:02;;;;;;;6.23;4.27;;;27.90;99.90;;;;;;5034531;28;20041;-67
2021/07/13 11:34:36;;;;;;;6.47;4.18;;;27.90;99.90;;;;;;5042063;28;20407;-67
2021/07/13 11:37:05;;;;;;;6.03;4.30;;;27.80;99.90;;;;;;5037366;28;20041;-67
2021/07/13 11:39:38;;;;;;;6.40;4.22;;;27.70;99.90;;;;;;5043945;28;20038;-67
2021/07/13 11:42:09;;;;;;;6.00;4.15;;;27.80;99.90;;;;;;5040569;28;20037;-67
2021/07/13 11:44:42;;;;;;;7.60;4.72;;;27.60;99.90;;;;;;5042087;28;20051;-66
2021/07/13 11:47:12;;;;;;;5.55;3.80;;;27.70;99.90;;;;;;5031889;28;20045;-66
2021/07/13 11:49:41;;;;;;;7.68;4.38;;;28.10;99.90;;;;;;5034584;28;20060;-66
2021/07/13 11:52:14;;;;;;;7.72;4.00;;;28.50;99.90;;;;;;5040198;28;20491;-66
2021/07/13 11:54:43;;;;;;;4.97;3.40;;;28.60;99.90;;;;;;5033419;28;20045;-66
2021/07/13 11:57:18;;;;;;;6.45;4.03;;;28.70;99.90;;;;;;5034611;28;20048;-66
2021/07/13 11:59:46;;;;;;;8.02;4.50;;;28.50;99.90;;;;;;5037628;28;20048;-66
2021/07/13 12:02:15;;;;;;;5.50;4.32;;;28.40;99.90;;;;;;5037601;28;20037;-66
2021/07/13 12:04:44;;;;;;;5.35;4.15;;;28.40;99.90;;;;;;5043113;28;20127;-66
2021/07/13 12:07:12;;;;;;;5.60;4.40;;;28.20;99.90;;;;;;5037306;28;20444;-66
2021/07/13 12:09:40;;;;;;;6.07;3.72;;;28.10;99.90;;;;;;5040336;28;20140;-66
2021/07/13 12:12:13;;;;;;;5.78;3.47;;;28.30;99.90;;;;;;5040819;28;20101;-66
2021/07/13 12:14:43;;;;;;;5.43;4.28;;;28.40;99.90;;;;;;5045420;28;20069;-66
2021/07/13 12:17:12;;;;;;;5.80;4.00;;;28.30;99.90;;;;;;5036793;28;20049;-66
2021/07/13 12:19:40;;;;;;;5.70;3.72;;;28.40;99.90;;;;;;5035668;28;20528;-66
2021/07/13 12:22:11;;;;;;;5.38;4.13;;;28.00;99.90;;;;;;5033854;28;20138;-66
2021/07/13 12:24:40;;;;;;;5.03;3.88;;;27.70;99.90;;;;;;5034081;28;20087;-66
2021/07/13 12:27:10;;;;;;;6.60;4.40;;;27.30;99.90;;;;;;5033122;28;20088;-67
2021/07/13 12:29:45;;;;;;;5.68;3.88;;;26.80;99.90;;;;;;5033915;28;20586;-67
2021/07/13 12:32:18;;;;;;;6.97;4.05;;;26.50;99.90;;;;;;5036081;28;20050;-67
2021/07/13 12:34:52;;;;;;;7.57;4.15;;;26.10;99.90;;;;;;5031810;28;20733;-66
2021/07/13 12:37:29;;;;;;;5.07;3.90;;;25.90;99.90;;;;;;5033837;28;20056;-66
2021/07/13 12:39:59;;;;;;;5.30;4.50;;;25.60;99.90;;;;;;5047170;28;20335;-66
2021/07/13 12:42:30;;;;;;;6.07;4.13;;;25.20;99.90;;;;;;5049822;28;20060;-67
2021/07/13 12:45:15;;;;;;;6.47;4.47;;;25.10;99.90;;;;;;5050423;28;20508;-66
2021/07/13 12:47:47;;;;;;;8.15;3.90;;;25.00;99.90;;;;;;5047595;28;20041;-65
2021/07/13 12:50:31;;;;;;;11.80;4.00;;;24.80;99.90;;;;;;5043967;28;20096;-66
2021/07/13 12:52:59;;;;;;;8.10;3.78;;;24.50;99.90;;;;;;5028935;28;20049;-65
2021/07/13 12:55:48;;;;;;;9.70;3.60;;;24.30;99.90;;;;;;5034938;28;20127;-69
2021/07/13 12:58:24;;;;;;;6.05;3.60;;;24.30;99.90;;;;;;5043637;28;20097;-70
2021/07/13 13:00:52;;;;;;;6.15;3.80;;;24.50;99.90;;;;;;5051775;28;20440;-68
2021/07/13 13:03:26;;;;;;;4.97;3.53;;;24.70;99.90;;;;;;5046746;28;20045;-70
2021/07/13 13:06:01;;;;;;;6.72;3.50;;;24.70;99.90;;;;;;5050106;28;20029;-70